Time;durP1;ratioP1;P1;durP2;ratioP2;P2;SDS_P1;SDS_P2;PMS_P1;PMS_P2;Temp;Humidity;BMP_temperature;BMP_pressure;BME280_temperature;BME280_humidity;BME280_pressure;Samples;Min_cycle;Max_cycle;Signal;HPM_P1;HPM_P2
2022/05/08 00:00:16;;;;;;;24.60;8.70;;;;;;;13.84;59.20;99669.13;1748117;81;21016;-38
2022/05/08 00:02:42;;;;;;;18.77;8.78;;;;;;;13.80;59.14;99673.77;1748071;81;20996;-38
2022/05/08 00:05:08;;;;;;;21.70;10.00;;;;;;;13.80;59.07;99668.48;1748075;81;21030;-37
2022/05/08 00:07:34;;;;;;;16.80;10.08;;;;;;;13.79;59.03;99665.48;1748217;81;20987;-38
2022/05/08 00:10:00;;;;;;;20.12;9.98;;;;;;;13.78;58.87;99662.92;1748150;81;20991;-38
2022/05/08 00:12:27;;;;;;;20.40;10.32;;;;;;;13.76;59.18;99664.81;1748085;82;21015;-38
2022/05/08 00:14:52;;;;;;;18.92;9.65;;;;;;;13.72;59.50;99656.23;1748133;82;21022;-38
2022/05/08 00:17:18;;;;;;;24.72;11.00;;;;;;;13.71;59.41;99662.93;1748142;81;21438;-37
2022/05/08 00:19:47;;;;;;;21.85;9.83;;;;;;;13.68;59.61;99661.34;1748064;81;21018;-38
2022/05/08 00:22:14;;;;;;;21.48;10.10;;;;;;;13.64;59.62;99657.16;1748100;81;21426;-38
2022/05/08 00:24:40;;;;;;;17.92;9.90;;;;;;;13.63;59.79;99663.41;1748288;81;21349;-38
2022/05/08 00:27:06;;;;;;;17.70;9.00;;;;;;;13.60;59.66;99659.63;1748425;81;21019;-38
2022/05/08 00:29:33;;;;;;;19.02;8.90;;;;;;;13.58;59.46;99654.91;1748071;81;20960;-38
2022/05/08 00:31:59;;;;;;;21.05;10.18;;;;;;;13.55;59.73;99665.66;1748137;81;20976;-38
2022/05/08 00:34:25;;;;;;;18.00;9.85;;;;;;;13.54;59.38;99666.63;1748169;81;20980;-38
2022/05/08 00:36:51;;;;;;;30.05;11.20;;;;;;;13.47;59.78;99664.82;1748172;81;20988;-38
2022/05/08 00:39:18;;;;;;;27.20;11.33;;;;;;;13.40;60.32;99664.34;1748087;81;21023;-38
2022/05/08 00:41:48;;;;;;;21.80;11.30;;;;;;;13.38;60.23;99655.66;1748054;81;20999;-37
2022/05/08 00:44:14;;;;;;;26.30;11.12;;;;;;;13.37;60.37;99660.58;1748023;82;21342;-38
2022/05/08 00:46:41;;;;;;;26.68;11.50;;;;;;;13.41;59.79;99655.48;1748026;81;20980;-37
2022/05/08 00:49:07;;;;;;;22.55;10.75;;;;;;;13.35;60.04;99652.36;1748132;80;21141;-37
2022/05/08 00:51:36;;;;;;;20.68;11.03;;;;;;;13.35;60.58;99649.27;1748163;81;21482;-38
2022/05/08 00:54:03;;;;;;;20.23;10.72;;;;;;;13.40;60.27;99645.00;1748128;81;21453;-38
2022/05/08 00:56:29;;;;;;;19.82;10.88;;;;;;;13.40;60.71;99647.16;1748247;81;21532;-38
2022/05/08 00:58:56;;;;;;;26.75;10.45;;;;;;;13.41;60.79;99651.52;1748292;82;20984;-38
2022/05/08 01:01:22;;;;;;;19.55;10.60;;;;;;;13.43;60.49;99655.39;1748034;81;20991;-38
2022/05/08 01:03:50;;;;;;;21.02;11.08;;;;;;;13.43;60.56;99647.47;1748106;81;21028;-38
2022/05/08 01:06:19;;;;;;;21.20;11.00;;;;;;;13.46;59.86;99642.45;1748239;81;21006;-37
2022/05/08 01:08:47;;;;;;;26.93;10.60;;;;;;;13.46;59.79;99641.13;1748049;81;21035;-38
2022/05/08 01:11:14;;;;;;;24.00;10.23;;;;;;;13.44;60.13;99645.19;1748062;81;20983;-38
2022/05/08 01:13:43;;;;;;;26.15;10.00;;;;;;;13.40;60.43;99655.09;1748073;81;20979;-38
2022/05/08 01:16:12;;;;;;;24.87;10.38;;;;;;;13.39;60.86;99654.73;1748036;81;21488;-37
2022/05/08 01:18:38;;;;;;;20.75;10.13;;;;;;;13.42;60.05;99661.61;1748030;82;21532;-38
2022/05/08 01:21:09;;;;;;;24.20;10.18;;;;;;;13.36;60.77;99654.91;1748055;82;21023;-38
2022/05/08 01:23:36;;;;;;;20.70;10.15;;;;;;;13.37;60.40;99653.98;1748017;81;21015;-38
2022/05/08 01:26:02;;;;;;;22.17;10.13;;;;;;;13.39;60.69;99660.02;1748184;81;21497;-38
2022/05/08 01:28:29;;;;;;;21.93;10.18;;;;;;;13.43;60.27;99665.48;1747992;82;21018;-38
2022/05/08 01:30:56;;;;;;;24.98;11.15;;;;;;;13.48;60.18;99659.05;1748288;81;20960;-39
2022/05/08 01:33:23;;;;;;;18.40;10.90;;;;;;;13.48;60.38;99665.66;1748237;81;21027;-39
2022/05/08 01:35:49;;;;;;;20.43;11.00;;;;;;;13.52;59.74;99668.52;1748233;81;20983;-38
2022/05/08 01:38:18;;;;;;;20.92;10.88;;;;;;;13.52;59.45;99656.63;1748054;81;20979;-39
2022/05/08 01:40:44;;;;;;;17.15;10.80;;;;;;;13.54;59.57;99654.73;1748062;81;21015;-39
2022/05/08 01:43:11;;;;;;;19.70;10.18;;;;;;;13.58;59.42;99659.72;1748047;81;20980;-38
2022/05/08 01:45:38;;;;;;;;;;;;;;;13.58;59.50;99650.95;1750727;81;20983;-39
2022/05/08 01:48:23;;;;;;;20.62;10.68;;;;;;;13.52;60.87;99648.70;1750172;80;20402;-40
2022/05/08 01:51:00;;;;;;;24.00;11.38;;;;;;;13.50;60.33;99647.47;1761397;81;20987;-40
2022/05/08 01:53:31;;;;;;;21.05;10.55;;;;;;;13.45;60.38;99652.18;1761473;81;20978;-39
2022/05/08 01:55:58;;;;;;;17.48;10.50;;;;;;;13.39;60.46;99648.61;1761471;80;20964;-39
2022/05/08 01:58:27;;;;;;;17.70;10.78;;;;;;;13.36;60.64;99649.63;1761377;81;20975;-37
2022/05/08 02:00:54;;;;;;;20.70;10.80;;;;;;;13.33;60.42;99649.80;1761099;81;21030;-37
2022/05/08 02:03:22;;;;;;;20.55;10.30;;;;;;;13.28;60.87;99651.00;1761375;81;20986;-37
2022/05/08 02:05:49;;;;;;;24.50;10.48;;;;;;;13.23;61.06;99653.94;1761384;81;20976;-38
2022/05/08 02:08:15;;;;;;;21.62;10.98;;;;;;;13.21;61.35;99651.86;1761309;81;21480;-37
2022/05/08 02:10:41;;;;;;;20.00;10.40;;;;;;;13.22;61.22;99652.22;1761602;81;21015;-37
2022/05/08 02:13:08;;;;;;;17.77;10.38;;;;;;;13.17;61.59;99652.96;1761330;81;20995;-37
2022/05/08 02:15:35;;;;;;;17.27;10.78;;;;;;;13.12;62.00;99653.73;1761461;81;20991;-37
2022/05/08 02:18:04;;;;;;;18.57;10.98;;;;;;;13.09;62.27;99657.87;1761410;81;20991;-37
2022/05/08 02:20:30;;;;;;;22.52;11.30;;;;;;;13.09;62.74;99653.91;1760606;81;21496;-38
2022/05/08 02:22:56;;;;;;;17.75;9.90;;;;;;;13.08;62.55;99652.20;1761305;81;20959;-38
2022/05/08 02:25:23;;;;;;;24.45;11.48;;;;;;;13.11;62.07;99647.59;1761383;81;21014;-37
2022/05/08 02:27:51;;;;;;;20.48;11.25;;;;;;;13.11;62.80;99645.42;1761372;81;21480;-37
2022/05/08 02:30:18;;;;;;;;;;;;;;;13.12;62.75;99644.02;1764025;80;21026;-38
2022/05/08 02:32:44;;;;;;;26.00;10.85;;;;;;;13.08;64.76;99643.83;1761340;81;20136;-38
2022/05/08 02:35:10;;;;;;;19.40;10.68;;;;;;;13.06;63.05;99643.91;1761331;80;21520;-38
2022/05/08 02:37:38;;;;;;;20.43;11.57;;;;;;;13.05;63.31;99644.84;1761679;81;20960;-37
2022/05/08 02:40:06;;;;;;;20.37;11.10;;;;;;;13.06;63.43;99648.33;1761581;81;21207;-37
2022/05/08 02:43:26;;;;;;;19.17;10.38;;;;;;;13.10;64.75;99645.91;1800542;79;23175;-37
2022/05/08 02:45:51;;;;;;;19.32;10.65;;;;;;;13.05;63.85;99648.80;1761382;80;21027;-36
2022/05/08 02:48:17;;;;;;;22.85;10.85;;;;;;;13.11;64.11;99652.02;1761742;81;20983;-37
2022/05/08 02:50:43;;;;;;;20.85;10.58;;;;;;;13.13;64.02;99647.50;1761961;80;20964;-37
2022/05/08 02:53:09;;;;;;;18.40;9.68;;;;;;;13.15;64.24;99649.57;1761753;81;20999;-38
2022/05/08 02:58:33;;;;;;;18.67;10.13;;;;;;;13.21;64.35;99651.86;1761719;80;21043;-38
2022/05/08 03:01:04;;;;;;;23.50;10.53;;;;;;;13.23;64.36;99660.53;1761716;81;21492;-39
2022/05/08 03:03:30;;;;;;;22.80;10.35;;;;;;;13.27;64.14;99655.92;1761603;81;20984;-39
2022/05/08 03:05:56;;;;;;;20.17;9.53;;;;;;;13.30;63.78;99653.06;1761765;81;20994;-38
2022/05/08 03:08:22;;;;;;;20.02;10.55;;;;;;;13.30;64.60;99656.58;1761885;80;20995;-41
2022/05/08 03:13:35;;;;;;;21.52;10.23;;;;;;;13.39;62.93;99658.70;1761740;81;21562;-40
2022/05/08 03:16:04;;;;;;;29.27;11.00;;;;;;;13.39;63.71;99655.21;1761857;81;20995;-39
2022/05/08 03:18:30;;;;;;;25.50;11.00;;;;;;;13.33;63.89;99656.41;1760659;81;20983;-40
2022/05/08 03:20:55;;;;;;;29.25;10.93;;;;;;;13.33;63.86;99655.09;1761682;80;20972;-39
2022/05/08 03:23:22;;;;;;;23.40;11.60;;;;;;;13.32;64.15;99654.72;1761793;81;20980;-38
2022/05/08 03:25:48;;;;;;;33.05;11.20;;;;;;;13.33;63.49;99655.09;1761822;80;21026;-39
2022/05/08 03:28:15;;;;;;;21.15;11.10;;;;;;;13.32;63.80;99654.72;1761739;80;20987;-38
2022/05/08 03:30:42;;;;;;;23.02;11.28;;;;;;;13.34;63.42;99654.16;1761732;81;20996;-38
2022/05/08 03:33:09;;;;;;;28.25;11.68;;;;;;;13.35;63.15;99653.67;1761799;80;21026;-44
2022/05/08 03:35:36;;;;;;;24.60;13.10;;;;;;;13.37;63.20;99658.39;1761870;80;20995;-39
2022/05/08 03:38:02;;;;;;;26.80;11.75;;;;;;;13.39;62.85;99657.85;1761868;80;20995;-38
2022/05/08 03:40:29;;;;;;;20.88;10.98;;;;;;;13.43;62.54;99661.52;1761724;81;20999;-39
2022/05/08 03:42:55;;;;;;;22.42;11.63;;;;;;;13.47;62.36;99656.05;1752462;81;21007;-38
2022/05/08 03:45:21;;;;;;;24.07;12.55;;;;;;;13.51;61.86;99661.52;1748596;82;20999;-38
2022/05/08 03:47:53;;;;;;;24.77;12.25;;;;;;;13.51;61.91;99662.84;1748633;82;21623;-38
2022/05/08 03:50:20;;;;;;;26.52;12.95;;;;;;;13.52;62.07;99669.84;1747707;81;20968;-39
2022/05/08 03:52:47;;;;;;;;;;;;;;;13.52;61.63;99667.20;1751120;81;20992;-39
2022/05/08 03:55:15;;;;;;;21.83;12.00;;;;;;;13.50;62.85;99679.63;1748356;81;20108;-37
2022/05/08 03:57:42;;;;;;;22.48;11.15;;;;;;;13.52;61.85;99677.77;1748102;81;20999;-39
2022/05/08 04:00:09;;;;;;;25.05;11.80;;;;;;;13.52;61.93;99681.73;1748237;81;21477;-40
2022/05/08 04:02:36;;;;;;;23.05;11.80;;;;;;;13.53;61.50;99683.41;1748172;81;20987;-40
2022/05/08 04:05:03;;;;;;;18.47;10.77;;;;;;;13.42;62.63;99684.94;1748377;81;21007;-39
2022/05/08 04:07:30;;;;;;;20.25;11.35;;;;;;;13.39;62.55;99685.11;1748266;81;20987;-38
2022/05/08 04:09:56;;;;;;;26.25;11.57;;;;;;;13.38;62.37;99685.20;1748241;81;21491;-39
2022/05/08 04:12:22;;;;;;;21.68;11.20;;;;;;;13.42;62.40;99691.53;1748185;81;21646;-39
2022/05/08 04:14:48;;;;;;;22.40;10.15;;;;;;;13.51;61.83;99694.55;1748081;81;20993;-39
2022/05/08 04:17:13;;;;;;;21.25;11.20;;;;;;;13.51;62.82;99687.46;1748085;81;21517;-40
2022/05/08 04:19:39;;;;;;;18.70;10.75;;;;;;;13.52;62.65;99688.33;1748058;81;20976;-39
2022/05/08 04:24:51;;;;;;;21.73;10.95;;;;;;;13.60;62.04;99688.70;1748082;82;20975;-38
2022/05/08 04:27:16;;;;;;;;;;;;;;;13.64;62.16;99696.80;1750677;81;21465;-38
2022/05/08 04:29:42;;;;;;;22.55;10.18;;;;;;;13.65;62.60;99701.16;1748071;81;20113;-38
2022/05/08 04:32:08;;;;;;;18.50;10.70;;;;;;;13.62;62.19;99694.28;1748120;81;21449;-38
2022/05/08 04:34:34;;;;;;;18.42;10.98;;;;;;;13.63;62.28;99692.00;1748188;81;20995;-38
2022/05/08 04:36:59;;;;;;;17.73;10.93;;;;;;;13.69;61.95;99702.66;1748142;81;21480;-39
2022/05/08 04:39:25;;;;;;;17.92;10.75;;;;;;;13.74;61.73;99705.03;1748187;81;21553;-38
2022/05/08 04:41:52;;;;;;;19.85;11.93;;;;;;;13.80;61.22;99701.52;1749894;80;21082;-38
2022/05/08 04:44:18;;;;;;;23.10;11.53;;;;;;;13.82;61.14;99700.98;1761529;81;20984;-37
2022/05/08 04:46:44;;;;;;;24.10;11.33;;;;;;;13.87;61.18;99705.13;1761728;81;21037;-39
2022/05/08 04:49:10;;;;;;;21.15;11.78;;;;;;;13.92;61.69;99703.05;1761417;81;20983;-38
2022/05/08 04:51:36;;;;;;;21.07;11.03;;;;;;;13.95;61.95;99709.44;1761408;81;20960;-37
2022/05/08 04:54:02;;;;;;;19.42;10.78;;;;;;;13.97;61.37;99707.55;1761397;81;21077;-40
2022/05/08 04:56:30;;;;;;;20.10;11.33;;;;;;;13.98;61.31;99717.19;1761431;81;21030;-39
2022/05/08 04:58:56;;;;;;;19.62;10.75;;;;;;;13.95;61.32;99716.05;1761600;81;21022;-40
2022/05/08 05:01:21;;;;;;;21.05;11.12;;;;;;;13.91;61.40;99717.20;1761307;81;20975;-38
2022/05/08 05:03:48;;;;;;;18.25;10.23;;;;;;;13.91;61.36;99723.80;1761372;81;21111;-38
2022/05/08 05:06:14;;;;;;;19.03;10.07;;;;;;;13.92;61.83;99724.20;1761661;80;21027;-38
2022/05/08 05:08:40;;;;;;;19.48;9.35;;;;;;;13.96;61.54;99730.98;1761425;81;20956;-38
2022/05/08 05:11:10;;;;;;;18.40;9.95;;;;;;;14.00;61.70;99733.81;1761419;81;21531;-38
2022/05/08 05:13:37;;;;;;;15.55;9.18;;;;;;;13.95;61.95;99735.88;1761432;81;21456;-39
2022/05/08 05:16:04;;;;;;;14.23;9.25;;;;;;;13.98;61.94;99735.70;1761481;81;21007;-40
2022/05/08 05:18:29;;;;;;;24.37;8.60;;;;;;;13.96;62.25;99740.23;1761588;81;20991;-38
2022/05/08 05:20:55;;;;;;;15.15;8.55;;;;;;;14.01;62.39;99739.48;1761407;81;21030;-39
2022/05/08 05:23:21;;;;;;;12.65;7.65;;;;;;;14.09;62.10;99745.61;1761440;81;20979;-38
2022/05/08 05:25:48;;;;;;;13.32;7.78;;;;;;;13.99;65.04;99741.37;1761391;80;20979;-38
2022/05/08 05:28:14;;;;;;;11.08;7.15;;;;;;;14.06;64.82;99744.02;1761462;81;20964;-38
2022/05/08 05:30:40;;;;;;;10.63;7.20;;;;;;;14.09;64.38;99750.42;1761388;81;20991;-37
2022/05/08 05:33:07;;;;;;;12.50;7.28;;;;;;;14.07;64.32;99747.02;1761391;81;20991;-38
2022/05/08 05:35:35;;;;;;;;;;;;;;;14.01;65.80;99749.58;1764002;81;20972;-38
2022/05/08 05:38:01;;;;;;;10.38;6.33;;;;;;;14.04;66.07;99745.88;1761395;81;20107;-38
2022/05/08 05:40:27;;;;;;;14.33;6.78;;;;;;;14.13;64.59;99740.02;1761388;81;20959;-38
2022/05/08 05:42:53;;;;;;;10.68;6.22;;;;;;;14.18;64.03;99741.91;1755277;80;21860;-37
2022/05/08 05:45:18;;;;;;;8.28;5.67;;;;;;;14.23;64.50;99736.82;1748106;81;21031;-37
2022/05/08 05:47:50;;;;;;;9.48;5.90;;;;;;;14.32;64.91;99741.52;1748049;81;20996;-39
2022/05/08 05:50:17;;;;;;;8.38;6.03;;;;;;;14.37;64.25;99741.60;1748053;81;21039;-39
2022/05/08 05:52:43;;;;;;;;;;;;;;;14.48;63.78;99745.34;1750619;81;21588;-38
2022/05/08 05:55:09;;;;;;;6.35;5.00;;;;;;;14.51;64.45;99750.44;1748062;82;20101;-38
2022/05/08 05:57:36;;;;;;;11.63;5.77;;;;;;;14.59;63.75;99754.33;1748220;81;21023;-39
2022/05/08 06:00:04;;;;;;;8.55;4.72;;;;;;;14.57;64.76;99759.30;1748176;81;20995;-39
2022/05/08 06:02:31;;;;;;;9.80;5.33;;;;;;;14.53;65.28;99758.64;1747982;81;21425;-37
2022/05/08 06:04:56;;;;;;;8.47;4.67;;;;;;;14.59;64.81;99763.59;1748267;82;21535;-40
2022/05/08 06:07:22;;;;;;;5.28;4.42;;;;;;;14.68;64.65;99764.80;1747999;81;20991;-38
2022/05/08 06:09:48;;;;;;;11.83;4.37;;;;;;;14.75;64.51;99763.46;1747989;81;20983;-38
2022/05/08 06:12:14;;;;;;;7.67;4.17;;;;;;;14.77;65.04;99764.20;1747955;82;20968;-39
2022/05/08 06:14:41;;;;;;;7.42;4.47;;;;;;;14.78;65.38;99762.40;1747965;81;21023;-39
2022/05/08 06:17:07;;;;;;;6.70;4.10;;;;;;;14.98;64.78;99765.91;1748104;81;21002;-39
2022/05/08 06:19:32;;;;;;;6.75;4.33;;;;;;;15.15;64.75;99773.20;1747990;81;21019;-39
2022/05/08 06:21:59;;;;;;;6.80;4.72;;;;;;;15.26;64.30;99772.03;1747975;81;21011;-38
2022/05/08 06:24:26;;;;;;;6.00;4.85;;;;;;;15.30;64.06;99772.68;1748097;81;20992;-38
2022/05/08 06:26:51;;;;;;;6.12;4.08;;;;;;;15.28;64.14;99772.78;1748042;81;21370;-38
2022/05/08 06:29:17;;;;;;;7.15;4.35;;;;;;;15.29;64.94;99774.94;1747966;81;20996;-39
2022/05/08 06:31:46;;;;;;;6.25;4.00;;;;;;;15.44;63.66;99774.38;1747962;81;21112;-38
2022/05/08 06:34:11;;;;;;;4.55;3.77;;;;;;;15.58;63.37;99776.10;1747820;81;20979;-38
2022/05/08 06:36:36;;;;;;;5.35;4.28;;;;;;;15.66;63.10;99775.08;1747993;81;20984;-39
2022/05/08 06:39:02;;;;;;;9.00;3.95;;;;;;;15.73;62.80;99777.23;1747946;81;20987;-40
2022/05/08 06:41:29;;;;;;;5.30;3.77;;;;;;;15.80;62.52;99777.67;1747952;81;21034;-39
2022/05/08 06:43:55;;;;;;;8.47;4.20;;;;;;;15.87;62.08;99781.59;1758238;81;21457;-39
2022/05/08 06:46:21;;;;;;;5.83;4.60;;;;;;;15.90;61.94;99785.85;1761362;81;21030;-39
2022/05/08 06:48:50;;;;;;;8.10;4.47;;;;;;;15.81;62.00;99783.36;1761306;80;21022;-40
2022/05/08 06:51:16;;;;;;;10.55;4.90;;;;;;;15.89;61.79;99785.47;1761307;81;21034;-38
2022/05/08 06:53:43;;;;;;;8.08;4.97;;;;;;;15.98;61.61;99791.45;1761339;80;21441;-38
2022/05/08 06:56:13;;;;;;;5.53;4.72;;;;;;;16.06;61.46;99793.11;1761423;81;21011;-39
2022/05/08 07:01:42;;;;;;;6.78;5.12;;;;;;;16.16;60.91;99792.45;1761290;81;21507;-39
2022/05/08 07:04:09;;;;;;;7.97;5.22;;;;;;;16.29;60.58;99799.91;1761167;81;21540;-38
2022/05/08 07:06:38;;;;;;;7.75;5.45;;;;;;;16.34;60.73;99795.13;1761374;81;20991;-39
2022/05/08 07:09:05;;;;;;;6.87;5.53;;;;;;;16.38;60.40;99792.63;1761417;81;21022;-39
2022/05/08 07:11:31;;;;;;;10.80;6.22;;;;;;;16.49;60.09;99798.00;1761417;81;20999;-38
2022/05/08 07:13:58;;;;;;;9.38;5.50;;;;;;;16.49;60.03;99798.00;1761317;81;21432;-38
2022/05/08 07:16:24;;;;;;;7.95;5.90;;;;;;;16.55;59.83;99800.69;1761606;81;20995;-38
2022/05/08 07:18:50;;;;;;;6.42;5.58;;;;;;;16.61;59.32;99801.59;1761272;81;20979;-39
2022/05/08 07:21:15;;;;;;;8.15;5.58;;;;;;;16.59;59.47;99803.97;1761333;81;20988;-38
2022/05/08 07:23:41;;;;;;;7.37;5.78;;;;;;;16.57;59.70;99805.89;1761405;81;20987;-39
2022/05/08 07:26:07;;;;;;;6.30;5.37;;;;;;;16.51;59.92;99803.20;1761400;81;20991;-39
2022/05/08 07:28:33;;;;;;;13.15;5.42;;;;;;;16.68;59.57;99799.32;1761261;80;21010;-37
2022/05/08 07:31:01;;;;;;;8.93;5.53;;;;;;;16.86;59.28;99802.02;1761309;81;20971;-38
2022/05/08 07:33:29;;;;;;;;;;;;;;;16.93;58.79;99806.88;1764148;81;20995;-39
2022/05/08 07:38:46;;;;;;;10.70;5.95;;;;;;;16.97;58.05;99810.98;1761618;81;21083;-39
2022/05/08 07:41:16;;;;;;;9.78;5.42;;;;;;;17.02;58.24;99815.48;1761532;81;20971;-40
2022/05/08 07:43:45;;;;;;;8.10;5.80;;;;;;;17.04;58.14;99812.23;1754017;80;21025;-38
2022/05/08 07:46:15;;;;;;;8.43;6.05;;;;;;;16.94;58.35;99821.86;1748072;81;21533;-38
2022/05/08 07:48:41;;;;;;;8.38;5.80;;;;;;;16.87;58.40;99815.66;1748104;81;21322;-40
2022/05/08 07:51:07;;;;;;;8.28;6.05;;;;;;;16.83;58.49;99812.02;1748200;81;21540;-38
2022/05/08 07:53:34;;;;;;;9.93;6.08;;;;;;;16.72;58.81;99814.55;1748182;82;20991;-38
2022/05/08 07:56:00;;;;;;;9.58;6.00;;;;;;;16.74;59.10;99810.84;1748290;81;20983;-40
2022/05/08 07:58:28;;;;;;;8.80;6.12;;;;;;;17.04;59.02;99806.43;1748111;81;20988;-39
2022/05/08 08:00:55;;;;;;;9.40;6.17;;;;;;;17.25;58.35;99803.16;1748188;81;21489;-38
2022/05/08 08:03:23;;;;;;;8.28;6.25;;;;;;;17.30;58.35;99809.44;1748158;81;20987;-38
2022/05/08 08:05:48;;;;;;;6.85;5.30;;;;;;;17.53;57.89;99813.88;1748066;82;21477;-39
2022/05/08 08:08:17;;;;;;;8.75;5.20;;;;;;;17.80;57.24;99802.09;1748104;81;21024;-40
2022/05/08 08:10:43;;;;;;;15.20;5.28;;;;;;;18.07;56.46;99800.95;1747941;81;21518;-39
2022/05/08 08:13:09;;;;;;;6.33;4.95;;;;;;;18.27;55.76;99805.55;1747991;81;21521;-39
2022/05/08 08:15:35;;;;;;;7.30;5.08;;;;;;;18.25;55.29;99803.98;1748099;81;21074;-39
2022/05/08 08:18:01;;;;;;;6.58;5.03;;;;;;;18.19;54.91;99803.49;1748235;81;21484;-39
2022/05/08 08:20:27;;;;;;;10.53;5.35;;;;;;;18.23;54.81;99804.09;1748086;81;20988;-39
2022/05/08 08:22:53;;;;;;;9.00;4.85;;;;;;;18.28;55.20;99809.91;1748042;81;21020;-39
2022/05/08 08:25:20;;;;;;;10.53;5.45;;;;;;;18.48;54.97;99802.13;1748330;81;21038;-40
2022/05/08 08:27:46;;;;;;;7.80;4.80;;;;;;;18.63;54.83;99812.90;1748320;81;20991;-40
2022/05/08 08:30:13;;;;;;;5.17;4.67;;;;;;;18.87;54.26;99807.91;1748061;81;21031;-38
2022/05/08 08:32:39;;;;;;;7.75;4.97;;;;;;;19.06;53.63;99809.90;1748203;81;21445;-39
2022/05/08 08:35:07;;;;;;;5.22;4.20;;;;;;;19.06;53.32;99813.41;1748212;81;20976;-39
2022/05/08 08:37:33;;;;;;;5.70;4.22;;;;;;;19.11;53.21;99813.88;1748063;81;21382;-38
2022/05/08 08:39:58;;;;;;;5.80;3.98;;;;;;;19.25;52.67;99815.41;1748019;81;21838;-39
2022/05/08 08:42:30;;;;;;;6.75;4.55;;;;;;;19.21;52.36;99815.31;1748171;81;20991;-40
2022/05/08 08:48:10;;;;;;;8.25;6.58;;;;;;;19.37;51.55;99828.19;1748166;82;20988;-39
2022/05/08 08:50:36;;;;;;;9.18;5.00;;;;;;;19.45;51.40;99821.74;1748043;81;21563;-38
2022/05/08 08:53:05;;;;;;;7.65;4.60;;;;;;;19.75;50.79;99824.15;1748022;82;20995;-40
2022/05/08 08:55:32;;;;;;;9.50;4.70;;;;;;;19.81;50.15;99827.64;1748019;81;21000;-38
2022/05/08 08:57:58;;;;;;;;;;;;;;;19.97;49.21;99828.48;1750697;82;20995;-38
2022/05/08 09:00:24;;;;;;;7.77;4.60;;;;;;;20.08;48.45;99832.91;1748288;81;20508;-40
2022/05/08 09:02:53;;;;;;;7.40;4.45;;;;;;;20.44;49.56;99832.02;1747951;81;20999;-39
2022/05/08 09:05:18;;;;;;;4.42;3.85;;;;;;;20.81;47.99;99836.78;1747968;81;21430;-39
2022/05/08 09:07:50;;;;;;;5.03;3.80;;;;;;;20.92;47.72;99839.83;1748040;81;20992;-39
2022/05/08 09:10:19;;;;;;;4.60;3.45;;;;;;;20.89;46.79;99828.44;1748259;82;21015;-37
2022/05/08 09:12:57;;;;;;;9.33;3.87;;;;;;;20.85;47.26;99830.20;1748022;81;20998;-38
2022/05/08 09:15:35;;;;;;;4.10;3.30;;;;;;;20.91;47.08;99832.31;1747698;81;21512;-39
2022/05/08 09:18:07;;;;;;;4.92;3.70;;;;;;;21.08;46.14;99837.00;1748044;81;21034;-38
2022/05/08 09:20:51;;;;;;;4.40;3.50;;;;;;;21.12;46.31;99837.56;1748073;81;21501;-39
2022/05/08 09:23:22;;;;;;;5.17;3.33;;;;;;;21.25;46.11;99834.61;1748019;81;21042;-39
2022/05/08 09:25:57;;;;;;;3.98;3.50;;;;;;;21.36;45.27;99834.97;1747968;81;20991;-38
2022/05/08 09:28:44;;;;;;;5.95;2.98;;;;;;;21.36;45.50;99836.31;1748008;81;20980;-39
2022/05/08 09:31:15;;;;;;;6.10;3.12;;;;;;;21.47;44.79;99842.38;1748211;81;20996;-39
2022/05/08 09:33:43;;;;;;;5.10;3.75;;;;;;;21.43;44.65;99842.28;1747070;82;20967;-41
2022/05/08 09:36:22;;;;;;;4.10;3.70;;;;;;;21.75;44.79;99843.82;1746306;82;21532;-40
2022/05/08 09:38:52;;;;;;;7.65;3.27;;;;;;;22.15;45.48;99836.55;1744161;82;20971;-39
2022/05/08 09:41:22;;;;;;;5.83;3.20;;;;;;;22.34;44.22;99832.97;1744369;82;21078;-39
2022/05/08 09:43:54;;;;;;;9.88;4.37;;;;;;;22.31;43.69;99839.98;1747661;81;21071;-39
2022/05/08 09:46:23;;;;;;;6.30;3.12;;;;;;;22.24;43.78;99839.69;1754412;82;21571;-38
2022/05/08 09:48:50;;;;;;;3.95;3.05;;;;;;;22.06;43.43;99842.28;1754623;82;21015;-38
2022/05/08 09:51:16;;;;;;;7.60;3.77;;;;;;;22.05;44.76;99851.32;1754826;82;21456;-39
2022/05/08 09:53:46;;;;;;;12.90;4.00;;;;;;;22.05;44.76;99851.32;1754933;81;22163;-38
2022/05/08 09:56:13;;;;;;;5.85;3.30;;;;;;;22.46;43.71;99848.37;1754452;81;21590;-39
2022/05/08 09:58:43;;;;;;;;;;;;;;;22.77;43.84;99844.39;1757417;82;20971;-39
2022/05/08 10:01:09;;;;;;;11.83;2.67;;;;;;;23.10;41.47;99845.28;1754653;80;20103;-38
2022/05/08 10:03:36;;;;;;;2.60;2.40;;;;;;;24.06;40.79;99848.11;1754765;81;20991;-38
2022/05/08 10:06:03;;;;;;;9.80;2.55;;;;;;;23.90;39.65;99845.32;1753822;82;21086;-37
2022/05/08 10:08:36;;;;;;;8.55;2.67;;;;;;;24.67;39.35;99850.31;1753728;80;21027;-38
2022/05/08 10:14:01;;;;;;;3.17;2.47;;;;;;;26.57;37.89;99832.29;1754753;82;21158;-38
2022/05/08 10:17:05;;;;;;;3.83;2.08;;;;;;;26.97;34.33;99835.83;1754598;82;20967;-38
2022/05/08 10:19:36;;;;;;;3.05;2.10;;;;;;;27.47;34.16;99839.91;1754366;82;21031;-38
2022/05/08 10:22:12;;;;;;;1.92;1.70;;;;;;;27.46;33.98;99835.51;1753516;82;21697;-37
2022/05/08 10:24:42;;;;;;;4.45;1.65;;;;;;;27.39;33.10;99841.30;1753499;82;21100;-38
2022/05/08 10:27:21;;;;;;;5.50;1.80;;;;;;;27.47;31.52;99843.95;1753706;82;21046;-39
2022/05/08 10:29:55;;;;;;;5.37;2.15;;;;;;;27.06;30.44;99841.50;1754505;81;21054;-38
2022/05/08 10:32:36;;;;;;;2.25;1.40;;;;;;;27.48;31.13;99838.03;1754674;82;20964;-37
2022/05/08 10:35:14;;;;;;;1.45;1.35;;;;;;;26.96;30.37;99843.09;1753718;81;21075;-37
2022/05/08 10:37:42;;;;;;;1.85;1.27;;;;;;;26.97;31.37;99837.17;1754596;81;21116;-38
2022/05/08 10:40:28;;;;;;;4.53;1.72;;;;;;;27.49;30.46;99837.02;1754638;81;21038;-38
2022/05/08 10:42:59;;;;;;;1.95;1.17;;;;;;;27.78;30.33;99836.26;1754767;81;20999;-37
2022/05/08 10:45:41;;;;;;;3.47;1.42;;;;;;;28.46;29.09;99837.58;1755083;81;21062;-39
2022/05/08 10:48:14;;;;;;;1.35;1.25;;;;;;;28.74;28.41;99833.68;1757046;81;21038;-39
2022/05/08 10:50:44;;;;;;;2.95;1.90;;;;;;;29.04;27.97;99833.09;1759831;81;21480;-38
2022/05/08 10:53:33;;;;;;;2.35;1.85;;;;;;;29.58;26.40;99833.13;1759753;81;20963;-38
2022/05/08 10:56:09;;;;;;;3.52;1.90;;;;;;;29.79;27.18;99825.49;1758958;81;21528;-38
2022/05/08 10:58:36;;;;;;;6.75;1.77;;;;;;;30.70;27.30;99830.52;1759806;81;21564;-38
2022/05/08 11:01:06;;;;;;;6.00;1.75;;;;;;;31.03;26.17;99825.22;1759743;81;20982;-37
2022/05/08 11:03:35;;;;;;;9.68;2.15;;;;;;;31.47;25.94;99825.20;1759656;81;21489;-38
2022/05/08 11:06:00;;;;;;;3.15;1.80;;;;;;;31.84;25.31;99825.63;1759636;81;21003;-38
2022/05/08 11:08:29;;;;;;;2.95;1.80;;;;;;;31.90;25.13;99831.56;1760014;81;20979;-37
2022/05/08 11:11:04;;;;;;;2.42;1.60;;;;;;;31.74;25.24;99817.91;1759834;81;20971;-37
2022/05/08 11:13:44;;;;;;;3.27;1.57;;;;;;;32.20;24.47;99820.26;1760090;81;21543;-37
2022/05/08 11:16:13;;;;;;;2.12;1.57;;;;;;;31.72;22.91;99823.22;1755266;81;21021;-39
2022/05/08 11:18:40;;;;;;;2.83;1.30;;;;;;;30.93;24.57;99819.36;1756154;81;20986;-37
2022/05/08 11:21:10;;;;;;;2.58;1.32;;;;;;;30.81;24.24;99819.07;1759996;81;21026;-45
2022/05/08 11:23:42;;;;;;;2.02;1.40;;;;;;;29.83;25.48;99822.73;1759827;81;21500;-38
2022/05/08 11:26:10;;;;;;;2.52;1.50;;;;;;;30.72;24.47;99812.98;1759868;81;21033;-37
2022/05/08 11:28:46;;;;;;;4.60;1.37;;;;;;;29.13;25.14;99819.45;1759792;81;20998;-38
2022/05/08 11:31:15;;;;;;;4.20;1.87;;;;;;;28.06;26.55;99819.45;1759880;81;21500;-37
2022/05/08 11:36:35;;;;;;;3.10;1.70;;;;;;;28.46;26.49;99814.06;1759839;81;20979;-37
2022/05/08 11:39:07;;;;;;;3.58;1.57;;;;;;;27.25;27.53;99815.05;1759859;81;21004;-37
2022/05/08 11:41:39;;;;;;;10.40;1.57;;;;;;;27.30;27.66;99813.52;1759499;81;20955;-40
2022/05/08 11:44:27;;;;;;;1.80;1.42;;;;;;;27.39;27.43;99821.05;1756636;81;20991;-39
2022/05/08 11:46:57;;;;;;;3.55;1.75;;;;;;;26.83;27.94;99813.64;1746521;82;21007;-37
2022/05/08 11:49:31;;;;;;;2.62;1.62;;;;;;;26.50;28.67;99815.95;1746139;81;21007;-38
2022/05/08 11:52:01;;;;;;;1.30;1.20;;;;;;;25.84;29.12;99815.30;1746471;82;20998;-38
2022/05/08 11:54:33;;;;;;;3.35;1.40;;;;;;;25.90;29.85;99809.22;1746496;82;21116;-39
2022/05/08 11:57:21;;;;;;;3.72;1.52;;;;;;;27.45;28.41;99811.37;1746263;82;21214;-38